sensor_id;sensor_type;location;lat;lon;timestamp;temperature;humidity
66190;DHT22;52992;52.084;5.412;2022-09-23T00:01:14;15.90;53.70
66190;DHT22;52992;52.084;5.412;2022-09-23T00:03:42;15.90;53.90
66190;DHT22;52992;52.084;5.412;2022-09-23T00:06:19;15.90;53.90
66190;DHT22;52992;52.084;5.412;2022-09-23T00:08:46;15.90;53.80
66190;DHT22;52992;52.084;5.412;2022-09-23T00:11:18;15.80;53.70
66190;DHT22;52992;52.084;5.412;2022-09-23T00:13:47;15.80;53.80
66190;DHT22;52992;52.084;5.412;2022-09-23T00:16:18;15.80;53.70
66190;DHT22;52992;52.084;5.412;2022-09-23T00:18:45;15.80;53.80
66190;DHT22;52992;52.084;5.412;2022-09-23T00:21:13;15.80;53.90
66190;DHT22;52992;52.084;5.412;2022-09-23T00:23:41;15.80;53.90
66190;DHT22;52992;52.084;5.412;2022-09-23T00:26:10;15.80;53.90
66190;DHT22;52992;52.084;5.412;2022-09-23T00:28:38;15.80;53.90
66190;DHT22;52992;52.084;5.412;2022-09-23T00:31:18;15.90;54.00
66190;DHT22;52992;52.084;5.412;2022-09-23T00:33:45;15.80;54.10
66190;DHT22;52992;52.084;5.412;2022-09-23T00:36:14;15.80;54.10
66190;DHT22;52992;52.084;5.412;2022-09-23T00:38:43;15.70;54.90
66190;DHT22;52992;52.084;5.412;2022-09-23T00:41:11;15.80;54.20
66190;DHT22;52992;52.084;5.412;2022-09-23T00:43:55;15.80;54.20
66190;DHT22;52992;52.084;5.412;2022-09-23T00:48:55;15.70;54.20
66190;DHT22;52992;52.084;5.412;2022-09-23T00:51:24;15.70;54.20
66190;DHT22;52992;52.084;5.412;2022-09-23T00:53:52;15.60;54.00
66190;DHT22;52992;52.084;5.412;2022-09-23T00:56:22;15.60;53.90
66190;DHT22;52992;52.084;5.412;2022-09-23T00:58:50;15.60;54.00
66190;DHT22;52992;52.084;5.412;2022-09-23T01:01:18;15.60;54.10
66190;DHT22;52992;52.084;5.412;2022-09-23T01:03:46;15.60;54.10
66190;DHT22;52992;52.084;5.412;2022-09-23T01:06:13;15.60;54.10
66190;DHT22;52992;52.084;5.412;2022-09-23T01:08:42;15.60;54.00
66190;DHT22;52992;52.084;5.412;2022-09-23T01:11:17;15.70;54.20
66190;DHT22;52992;52.084;5.412;2022-09-23T01:17:06;15.50;54.20
66190;DHT22;52992;52.084;5.412;2022-09-23T01:38:42;15.30;54.30
66190;DHT22;52992;52.084;5.412;2022-09-23T01:46:51;15.20;53.90
66190;DHT22;52992;52.084;5.412;2022-09-23T01:49:25;15.20;54.00
66190;DHT22;52992;52.084;5.412;2022-09-23T01:52:39;15.10;54.00
66190;DHT22;52992;52.084;5.412;2022-09-23T01:55:15;15.10;54.10
66190;DHT22;52992;52.084;5.412;2022-09-23T01:57:47;15.20;54.10
66190;DHT22;52992;52.084;5.412;2022-09-23T02:00:17;15.10;54.30
66190;DHT22;52992;52.084;5.412;2022-09-23T02:02:51;15.10;54.30
66190;DHT22;52992;52.084;5.412;2022-09-23T02:05:54;15.10;54.30
66190;DHT22;52992;52.084;5.412;2022-09-23T02:08:29;15.10;54.40
66190;DHT22;52992;52.084;5.412;2022-09-23T02:11:06;15.10;54.30
66190;DHT22;52992;52.084;5.412;2022-09-23T02:16:34;15.10;54.20
66190;DHT22;52992;52.084;5.412;2022-09-23T02:22:02;15.00;54.20
66190;DHT22;52992;52.084;5.412;2022-09-23T02:24:33;15.00;54.40
66190;DHT22;52992;52.084;5.412;2022-09-23T02:30:21;15.00;54.50
66190;DHT22;52992;52.084;5.412;2022-09-23T02:35:26;15.00;54.50
66190;DHT22;52992;52.084;5.412;2022-09-23T02:38:03;15.00;54.60
66190;DHT22;52992;52.084;5.412;2022-09-23T02:43:15;15.00;54.60
66190;DHT22;52992;52.084;5.412;2022-09-23T02:45:45;14.90;54.50
66190;DHT22;52992;52.084;5.412;2022-09-23T02:48:21;14.90;54.40
66190;DHT22;52992;52.084;5.412;2022-09-23T02:50:49;14.90;54.50
66190;DHT22;52992;52.084;5.412;2022-09-23T02:53:16;15.00;54.60
66190;DHT22;52992;52.084;5.412;2022-09-23T02:55:43;14.90;54.70
66190;DHT22;52992;52.084;5.412;2022-09-23T02:58:11;14.90;54.80
66190;DHT22;52992;52.084;5.412;2022-09-23T03:00:51;14.90;54.90
66190;DHT22;52992;52.084;5.412;2022-09-23T03:03:46;14.90;54.90
66190;DHT22;52992;52.084;5.412;2022-09-23T03:06:28;14.80;54.70
66190;DHT22;52992;52.084;5.412;2022-09-23T03:09:20;14.90;54.80
66190;DHT22;52992;52.084;5.412;2022-09-23T03:11:54;14.80;54.70
66190;DHT22;52992;52.084;5.412;2022-09-23T03:14:36;14.80;54.60
66190;DHT22;52992;52.084;5.412;2022-09-23T03:17:12;14.80;54.60
66190;DHT22;52992;52.084;5.412;2022-09-23T03:19:42;14.80;54.60
66190;DHT22;52992;52.084;5.412;2022-09-23T03:24:53;14.80;54.90
66190;DHT22;52992;52.084;5.412;2022-09-23T03:27:25;14.70;54.80
66190;DHT22;52992;52.084;5.412;2022-09-23T03:29:54;14.80;54.80
66190;DHT22;52992;52.084;5.412;2022-09-23T03:32:24;14.70;54.70
66190;DHT22;52992;52.084;5.412;2022-09-23T03:34:56;14.80;54.80
66190;DHT22;52992;52.084;5.412;2022-09-23T03:37:42;14.70;54.70
66190;DHT22;52992;52.084;5.412;2022-09-23T03:40:28;14.70;54.80
66190;DHT22;52992;52.084;5.412;2022-09-23T03:42:58;14.70;54.70
66190;DHT22;52992;52.084;5.412;2022-09-23T03:45:30;14.80;54.60
66190;DHT22;52992;52.084;5.412;2022-09-23T03:47:58;14.70;54.70
66190;DHT22;52992;52.084;5.412;2022-09-23T03:50:26;14.70;54.60
66190;DHT22;52992;52.084;5.412;2022-09-23T03:52:53;14.70;54.70
66190;DHT22;52992;52.084;5.412;2022-09-23T03:55:21;14.80;54.60
66190;DHT22;52992;52.084;5.412;2022-09-23T03:57:48;14.70;54.60
66190;DHT22;52992;52.084;5.412;2022-09-23T04:00:15;14.70;54.60
66190;DHT22;52992;52.084;5.412;2022-09-23T04:02:42;14.80;54.70
66190;DHT22;52992;52.084;5.412;2022-09-23T04:05:10;14.80;54.70
66190;DHT22;52992;52.084;5.412;2022-09-23T04:07:38;14.80;54.70
66190;DHT22;52992;52.084;5.412;2022-09-23T04:10:05;14.80;54.80
66190;DHT22;52992;52.084;5.412;2022-09-23T04:12:32;14.80;55.60
66190;DHT22;52992;52.084;5.412;2022-09-23T04:14:59;14.90;55.00
66190;DHT22;52992;52.084;5.412;2022-09-23T04:17:26;14.80;55.00
66190;DHT22;52992;52.084;5.412;2022-09-23T04:19:52;14.80;55.00
66190;DHT22;52992;52.084;5.412;2022-09-23T04:22:19;14.80;55.00
66190;DHT22;52992;52.084;5.412;2022-09-23T04:24:46;14.80;55.10
66190;DHT22;52992;52.084;5.412;2022-09-23T04:27:14;14.80;55.10
66190;DHT22;52992;52.084;5.412;2022-09-23T04:29:41;14.90;55.10
66190;DHT22;52992;52.084;5.412;2022-09-23T04:32:08;14.90;55.00
66190;DHT22;52992;52.084;5.412;2022-09-23T04:34:35;14.80;55.00
66190;DHT22;52992;52.084;5.412;2022-09-23T04:37:02;14.90;55.20
66190;DHT22;52992;52.084;5.412;2022-09-23T04:39:29;14.90;55.20
66190;DHT22;52992;52.084;5.412;2022-09-23T04:41:56;15.00;55.20
66190;DHT22;52992;52.084;5.412;2022-09-23T04:44:23;14.90;55.20
66190;DHT22;52992;52.084;5.412;2022-09-23T04:46:50;15.00;55.20
66190;DHT22;52992;52.084;5.412;2022-09-23T04:49:17;15.00;55.30
66190;DHT22;52992;52.084;5.412;2022-09-23T04:51:44;15.00;55.30
66190;DHT22;52992;52.084;5.412;2022-09-23T04:54:12;15.20;55.40
66190;DHT22;52992;52.084;5.412;2022-09-23T04:56:40;15.10;55.50
66190;DHT22;52992;52.084;5.412;2022-09-23T04:59:07;15.10;55.50
66190;DHT22;52992;52.084;5.412;2022-09-23T05:01:35;15.10;55.50
66190;DHT22;52992;52.084;5.412;2022-09-23T05:04:05;15.20;55.50
66190;DHT22;52992;52.084;5.412;2022-09-23T05:06:33;15.30;55.70
66190;DHT22;52992;52.084;5.412;2022-09-23T05:09:01;15.20;55.50
66190;DHT22;52992;52.084;5.412;2022-09-23T05:11:30;15.20;55.50
66190;DHT22;52992;52.084;5.412;2022-09-23T05:13:57;15.30;55.70
66190;DHT22;52992;52.084;5.412;2022-09-23T05:16:24;15.30;55.70
66190;DHT22;52992;52.084;5.412;2022-09-23T05:18:52;15.40;55.70
66190;DHT22;52992;52.084;5.412;2022-09-23T05:21:21;15.40;55.80
66190;DHT22;52992;52.084;5.412;2022-09-23T05:23:51;15.40;55.80
66190;DHT22;52992;52.084;5.412;2022-09-23T05:26:26;15.50;55.80
66190;DHT22;52992;52.084;5.412;2022-09-23T05:28:54;15.50;55.90
66190;DHT22;52992;52.084;5.412;2022-09-23T05:31:23;15.50;55.80
66190;DHT22;52992;52.084;5.412;2022-09-23T05:34:02;15.60;55.90
66190;DHT22;52992;52.084;5.412;2022-09-23T05:36:31;15.60;56.60
66190;DHT22;52992;52.084;5.412;2022-09-23T05:39:05;15.60;55.80
66190;DHT22;52992;52.084;5.412;2022-09-23T05:41:32;15.60;55.80
66190;DHT22;52992;52.084;5.412;2022-09-23T05:43:59;15.70;55.90
66190;DHT22;52992;52.084;5.412;2022-09-23T05:46:29;15.70;55.90
66190;DHT22;52992;52.084;5.412;2022-09-23T05:48:58;15.70;55.90
66190;DHT22;52992;52.084;5.412;2022-09-23T05:51:29;15.80;55.90
66190;DHT22;52992;52.084;5.412;2022-09-23T05:53:57;15.90;56.00
66190;DHT22;52992;52.084;5.412;2022-09-23T05:56:26;15.90;56.00
66190;DHT22;52992;52.084;5.412;2022-09-23T05:58:55;15.80;55.80
66190;DHT22;52992;52.084;5.412;2022-09-23T06:01:28;16.00;55.90
66190;DHT22;52992;52.084;5.412;2022-09-23T06:03:58;16.00;55.90
66190;DHT22;52992;52.084;5.412;2022-09-23T06:06:31;16.00;55.70
66190;DHT22;52992;52.084;5.412;2022-09-23T06:08:59;16.00;55.70
66190;DHT22;52992;52.084;5.412;2022-09-23T06:11:29;16.00;55.70
66190;DHT22;52992;52.084;5.412;2022-09-23T06:13:57;16.10;55.80
66190;DHT22;52992;52.084;5.412;2022-09-23T06:16:31;16.20;55.70
66190;DHT22;52992;52.084;5.412;2022-09-23T06:18:58;16.20;55.50
66190;DHT22;52992;52.084;5.412;2022-09-23T06:21:34;16.10;55.50
66190;DHT22;52992;52.084;5.412;2022-09-23T06:24:01;16.10;55.50
66190;DHT22;52992;52.084;5.412;2022-09-23T06:26:28;16.10;55.50
66190;DHT22;52992;52.084;5.412;2022-09-23T06:29:00;16.10;55.50
66190;DHT22;52992;52.084;5.412;2022-09-23T06:31:28;16.20;55.40
66190;DHT22;52992;52.084;5.412;2022-09-23T06:33:55;16.20;55.40
66190;DHT22;52992;52.084;5.412;2022-09-23T06:36:36;16.40;55.50
66190;DHT22;52992;52.084;5.412;2022-09-23T06:39:09;16.30;55.40
66190;DHT22;52992;52.084;5.412;2022-09-23T06:41:36;16.40;55.30
66190;DHT22;52992;52.084;5.412;2022-09-23T06:44:08;16.40;55.10
66190;DHT22;52992;52.084;5.412;2022-09-23T06:46:35;16.40;55.80
66190;DHT22;52992;52.084;5.412;2022-09-23T06:49:02;16.40;54.90
66190;DHT22;52992;52.084;5.412;2022-09-23T06:51:29;16.40;54.80
66190;DHT22;52992;52.084;5.412;2022-09-23T06:53:56;16.50;54.80
66190;DHT22;52992;52.084;5.412;2022-09-23T06:56:23;16.60;54.80
66190;DHT22;52992;52.084;5.412;2022-09-23T06:58:51;16.60;54.50
66190;DHT22;52992;52.084;5.412;2022-09-23T07:01:18;16.70;54.40
66190;DHT22;52992;52.084;5.412;2022-09-23T07:03:46;16.70;54.20
66190;DHT22;52992;52.084;5.412;2022-09-23T07:06:14;16.80;54.20
66190;DHT22;52992;52.084;5.412;2022-09-23T07:08:44;16.80;53.80
66190;DHT22;52992;52.084;5.412;2022-09-23T07:11:12;16.80;53.70
66190;DHT22;52992;52.084;5.412;2022-09-23T07:13:40;16.80;54.10
66190;DHT22;52992;52.084;5.412;2022-09-23T07:16:10;16.90;53.90
66190;DHT22;52992;52.084;5.412;2022-09-23T07:18:38;17.00;53.80
66190;DHT22;52992;52.084;5.412;2022-09-23T07:21:08;17.10;53.70
66190;DHT22;52992;52.084;5.412;2022-09-23T07:23:35;17.30;53.20
66190;DHT22;52992;52.084;5.412;2022-09-23T07:26:04;17.40;53.00
66190;DHT22;52992;52.084;5.412;2022-09-23T07:28:31;17.60;52.60
66190;DHT22;52992;52.084;5.412;2022-09-23T07:31:02;17.80;52.20
66190;DHT22;52992;52.084;5.412;2022-09-23T07:33:30;18.00;51.70
66190;DHT22;52992;52.084;5.412;2022-09-23T07:36:07;18.10;51.60
66190;DHT22;52992;52.084;5.412;2022-09-23T07:38:34;18.20;51.50
66190;DHT22;52992;52.084;5.412;2022-09-23T07:41:07;18.30;51.70
66190;DHT22;52992;52.084;5.412;2022-09-23T07:43:35;18.20;51.70
66190;DHT22;52992;52.084;5.412;2022-09-23T07:46:06;18.10;51.90
66190;DHT22;52992;52.084;5.412;2022-09-23T07:48:34;18.10;52.30
66190;DHT22;52992;52.084;5.412;2022-09-23T07:51:19;18.20;52.80
66190;DHT22;52992;52.084;5.412;2022-09-23T07:53:48;18.30;53.40
66190;DHT22;52992;52.084;5.412;2022-09-23T07:56:17;18.30;53.50
66190;DHT22;52992;52.084;5.412;2022-09-23T07:58:48;18.60;53.50
66190;DHT22;52992;52.084;5.412;2022-09-23T08:01:28;18.60;53.30
66190;DHT22;52992;52.084;5.412;2022-09-23T08:03:56;18.70;54.00
66190;DHT22;52992;52.084;5.412;2022-09-23T08:06:23;18.90;54.10
66190;DHT22;52992;52.084;5.412;2022-09-23T08:08:51;19.10;53.80
66190;DHT22;52992;52.084;5.412;2022-09-23T08:11:19;19.20;53.20
66190;DHT22;52992;52.084;5.412;2022-09-23T08:13:46;19.40;53.80
66190;DHT22;52992;52.084;5.412;2022-09-23T08:16:13;19.60;53.20
66190;DHT22;52992;52.084;5.412;2022-09-23T08:18:43;19.60;53.10
66190;DHT22;52992;52.084;5.412;2022-09-23T08:21:11;19.70;53.50
66190;DHT22;52992;52.084;5.412;2022-09-23T08:23:37;19.90;54.80
66190;DHT22;52992;52.084;5.412;2022-09-23T08:26:05;20.10;54.50
66190;DHT22;52992;52.084;5.412;2022-09-23T08:28:39;20.30;53.40
66190;DHT22;52992;52.084;5.412;2022-09-23T08:31:09;20.40;52.30
66190;DHT22;52992;52.084;5.412;2022-09-23T08:33:36;20.40;52.10
66190;DHT22;52992;52.084;5.412;2022-09-23T08:36:03;20.40;51.50
66190;DHT22;52992;52.084;5.412;2022-09-23T08:38:30;20.50;52.10
66190;DHT22;52992;52.084;5.412;2022-09-23T08:41:19;20.50;51.80
66190;DHT22;52992;52.084;5.412;2022-09-23T08:43:53;20.60;50.90
66190;DHT22;52992;52.084;5.412;2022-09-23T08:46:27;20.60;50.30
66190;DHT22;52992;52.084;5.412;2022-09-23T08:48:55;20.60;50.20
66190;DHT22;52992;52.084;5.412;2022-09-23T08:51:29;20.70;49.80
66190;DHT22;52992;52.084;5.412;2022-09-23T08:53:59;20.90;49.90
66190;DHT22;52992;52.084;5.412;2022-09-23T08:56:27;21.10;50.80
66190;DHT22;52992;52.084;5.412;2022-09-23T09:01:51;21.20;50.10
66190;DHT22;52992;52.084;5.412;2022-09-23T09:17:46;21.30;48.70
66190;DHT22;52992;52.084;5.412;2022-09-23T09:20:28;21.30;48.10
66190;DHT22;52992;52.084;5.412;2022-09-23T09:22:58;21.20;48.00
66190;DHT22;52992;52.084;5.412;2022-09-23T09:25:51;21.30;48.20
66190;DHT22;52992;52.084;5.412;2022-09-23T09:28:22;21.30;47.70
66190;DHT22;52992;52.084;5.412;2022-09-23T09:30:54;21.30;47.60
66190;DHT22;52992;52.084;5.412;2022-09-23T09:36:24;21.40;47.60
66190;DHT22;52992;52.084;5.412;2022-09-23T09:38:56;21.40;47.50
66190;DHT22;52992;52.084;5.412;2022-09-23T09:41:26;21.60;47.40
66190;DHT22;52992;52.084;5.412;2022-09-23T09:43:58;21.50;47.40
66190;DHT22;52992;52.084;5.412;2022-09-23T09:46:50;21.50;47.60
66190;DHT22;52992;52.084;5.412;2022-09-23T09:49:41;21.50;46.50
66190;DHT22;52992;52.084;5.412;2022-09-23T09:52:26;21.60;46.40
66190;DHT22;52992;52.084;5.412;2022-09-23T09:57:55;21.80;47.60
66190;DHT22;52992;52.084;5.412;2022-09-23T10:00:35;21.90;47.00
66190;DHT22;52992;52.084;5.412;2022-09-23T10:08:31;22.10;46.10
66190;DHT22;52992;52.084;5.412;2022-09-23T10:11:12;22.00;46.20
66190;DHT22;52992;52.084;5.412;2022-09-23T10:14:03;22.20;45.70
66190;DHT22;52992;52.084;5.412;2022-09-23T10:16:30;22.40;45.50
66190;DHT22;52992;52.084;5.412;2022-09-23T10:19:02;22.60;45.20
66190;DHT22;52992;52.084;5.412;2022-09-23T10:21:35;22.80;44.30
66190;DHT22;52992;52.084;5.412;2022-09-23T10:24:06;23.00;43.50
66190;DHT22;52992;52.084;5.412;2022-09-23T10:26:50;23.00;43.40
66190;DHT22;52992;52.084;5.412;2022-09-23T10:29:37;23.40;43.80
66190;DHT22;52992;52.084;5.412;2022-09-23T10:32:24;23.50;43.30
66190;DHT22;52992;52.084;5.412;2022-09-23T10:37:42;23.60;42.60
66190;DHT22;52992;52.084;5.412;2022-09-23T10:40:39;23.50;43.00
66190;DHT22;52992;52.084;5.412;2022-09-23T10:46:36;23.30;43.70
66190;DHT22;52992;52.084;5.412;2022-09-23T10:52:11;23.00;44.30
66190;DHT22;52992;52.084;5.412;2022-09-23T11:00:21;22.70;44.60
66190;DHT22;52992;52.084;5.412;2022-09-23T11:02:57;22.60;44.90
66190;DHT22;52992;52.084;5.412;2022-09-23T11:05:40;22.60;44.40
66190;DHT22;52992;52.084;5.412;2022-09-23T11:16:43;22.60;44.40
66190;DHT22;52992;52.084;5.412;2022-09-23T11:22:09;22.70;43.90
66190;DHT22;52992;52.084;5.412;2022-09-23T11:25:15;22.80;44.50
66190;DHT22;52992;52.084;5.412;2022-09-23T11:31:02;23.00;43.90
66190;DHT22;52992;52.084;5.412;2022-09-23T11:33:45;23.10;43.20
66190;DHT22;52992;52.084;5.412;2022-09-23T11:39:33;23.40;43.00
66190;DHT22;52992;52.084;5.412;2022-09-23T11:42:02;23.40;42.50
66190;DHT22;52992;52.084;5.412;2022-09-23T11:44:38;23.60;43.00
66190;DHT22;52992;52.084;5.412;2022-09-23T11:47:23;23.70;42.50
66190;DHT22;52992;52.084;5.412;2022-09-23T11:49:59;23.70;43.10
66190;DHT22;52992;52.084;5.412;2022-09-23T11:52:34;23.80;41.80
66190;DHT22;52992;52.084;5.412;2022-09-23T11:55:14;23.90;41.00
66190;DHT22;52992;52.084;5.412;2022-09-23T11:57:51;24.40;42.20
66190;DHT22;52992;52.084;5.412;2022-09-23T12:00:24;25.30;39.60
66190;DHT22;52992;52.084;5.412;2022-09-23T12:03:58;25.90;39.00
66190;DHT22;52992;52.084;5.412;2022-09-23T12:06:15;26.30;38.20
66190;DHT22;52992;52.084;5.412;2022-09-23T12:08:44;26.70;35.20
66190;DHT22;52992;52.084;5.412;2022-09-23T12:11:52;26.80;35.00
66190;DHT22;52992;52.084;5.412;2022-09-23T12:17:44;27.50;36.00
66190;DHT22;52992;52.084;5.412;2022-09-23T12:20:35;27.80;34.00
66190;DHT22;52992;52.084;5.412;2022-09-23T12:25:55;26.90;35.10
66190;DHT22;52992;52.084;5.412;2022-09-23T12:28:27;26.20;37.30
66190;DHT22;52992;52.084;5.412;2022-09-23T12:30:58;25.60;36.80
66190;DHT22;52992;52.084;5.412;2022-09-23T12:33:27;25.20;37.60
66190;DHT22;52992;52.084;5.412;2022-09-23T12:41:24;24.40;39.40
66190;DHT22;52992;52.084;5.412;2022-09-23T12:44:14;24.20;39.50
66190;DHT22;52992;52.084;5.412;2022-09-23T12:49:51;23.90;39.70
66190;DHT22;52992;52.084;5.412;2022-09-23T12:52:29;23.90;40.40
66190;DHT22;52992;52.084;5.412;2022-09-23T12:57:50;23.70;40.20
66190;DHT22;52992;52.084;5.412;2022-09-23T13:00:22;23.80;40.00
66190;DHT22;52992;52.084;5.412;2022-09-23T13:02:51;23.80;39.30
66190;DHT22;52992;52.084;5.412;2022-09-23T13:05:50;23.80;41.80
66190;DHT22;52992;52.084;5.412;2022-09-23T13:08:38;24.00;41.30
66190;DHT22;52992;52.084;5.412;2022-09-23T13:11:21;24.20;41.00
66190;DHT22;52992;52.084;5.412;2022-09-23T13:13:49;24.30;39.70
66190;DHT22;52992;52.084;5.412;2022-09-23T13:16:22;24.60;38.40
66190;DHT22;52992;52.084;5.412;2022-09-23T13:27:11;24.90;39.80
66190;DHT22;52992;52.084;5.412;2022-09-23T13:30:03;24.80;39.40
66190;DHT22;52992;52.084;5.412;2022-09-23T13:35:26;24.50;39.50
66190;DHT22;52992;52.084;5.412;2022-09-23T13:37:56;24.40;39.80
66190;DHT22;52992;52.084;5.412;2022-09-23T13:40:27;24.20;40.50
66190;DHT22;52992;52.084;5.412;2022-09-23T13:43:01;24.20;41.20
66190;DHT22;52992;52.084;5.412;2022-09-23T13:45:30;24.00;40.30
66190;DHT22;52992;52.084;5.412;2022-09-23T13:48:01;23.90;41.50
66190;DHT22;52992;52.084;5.412;2022-09-23T13:50:29;23.90;41.40
66190;DHT22;52992;52.084;5.412;2022-09-23T13:53:04;23.80;40.40
66190;DHT22;52992;52.084;5.412;2022-09-23T13:55:37;23.80;40.20
66190;DHT22;52992;52.084;5.412;2022-09-23T13:58:13;23.70;40.30
66190;DHT22;52992;52.084;5.412;2022-09-23T14:00:43;23.70;41.50
66190;DHT22;52992;52.084;5.412;2022-09-23T14:03:25;23.70;40.80
66190;DHT22;52992;52.084;5.412;2022-09-23T14:05:54;23.60;40.60
66190;DHT22;52992;52.084;5.412;2022-09-23T14:08:22;23.50;39.60
66190;DHT22;52992;52.084;5.412;2022-09-23T14:10:49;23.50;40.80
66190;DHT22;52992;52.084;5.412;2022-09-23T14:13:26;23.60;39.70
66190;DHT22;52992;52.084;5.412;2022-09-23T14:15:57;23.70;40.50
66190;DHT22;52992;52.084;5.412;2022-09-23T14:18:30;23.80;41.20
66190;DHT22;52992;52.084;5.412;2022-09-23T14:20:57;23.80;41.20
66190;DHT22;52992;52.084;5.412;2022-09-23T14:23:24;23.80;41.80
66190;DHT22;52992;52.084;5.412;2022-09-23T14:25:52;23.90;41.70
66190;DHT22;52992;52.084;5.412;2022-09-23T14:28:21;23.90;40.90
66190;DHT22;52992;52.084;5.412;2022-09-23T14:30:51;23.90;40.30
66190;DHT22;52992;52.084;5.412;2022-09-23T14:33:39;23.90;40.30
66190;DHT22;52992;52.084;5.412;2022-09-23T14:36:09;23.80;40.70
66190;DHT22;52992;52.084;5.412;2022-09-23T14:39:02;23.80;40.90
66190;DHT22;52992;52.084;5.412;2022-09-23T14:41:34;23.70;40.50
66190;DHT22;52992;52.084;5.412;2022-09-23T14:44:05;23.60;41.10
66190;DHT22;52992;52.084;5.412;2022-09-23T14:46:36;23.50;41.00
66190;DHT22;52992;52.084;5.412;2022-09-23T14:51:53;23.50;42.70
66190;DHT22;52992;52.084;5.412;2022-09-23T14:56:59;23.40;42.30
66190;DHT22;52992;52.084;5.412;2022-09-23T14:59:31;23.40;42.30
66190;DHT22;52992;52.084;5.412;2022-09-23T15:01:59;23.40;43.10
66190;DHT22;52992;52.084;5.412;2022-09-23T15:04:28;23.40;42.80
66190;DHT22;52992;52.084;5.412;2022-09-23T15:06:57;23.40;44.20
66190;DHT22;52992;52.084;5.412;2022-09-23T15:09:29;23.40;43.40
66190;DHT22;52992;52.084;5.412;2022-09-23T15:12:03;23.30;42.90
66190;DHT22;52992;52.084;5.412;2022-09-23T15:14:36;23.30;43.20
66190;DHT22;52992;52.084;5.412;2022-09-23T15:17:29;23.20;43.90
66190;DHT22;52992;52.084;5.412;2022-09-23T15:20:04;23.20;44.20
66190;DHT22;52992;52.084;5.412;2022-09-23T15:22:44;23.20;44.70
66190;DHT22;52992;52.084;5.412;2022-09-23T15:30:35;23.20;46.00
66190;DHT22;52992;52.084;5.412;2022-09-23T15:33:02;23.10;45.50
66190;DHT22;52992;52.084;5.412;2022-09-23T15:35:29;23.10;45.30
66190;DHT22;52992;52.084;5.412;2022-09-23T15:37:59;23.10;45.40
66190;DHT22;52992;52.084;5.412;2022-09-23T15:40:33;23.00;45.20
66190;DHT22;52992;52.084;5.412;2022-09-23T15:43:27;23.00;45.00
66190;DHT22;52992;52.084;5.412;2022-09-23T15:45:57;23.10;45.40
66190;DHT22;52992;52.084;5.412;2022-09-23T15:48:34;22.90;45.20
66190;DHT22;52992;52.084;5.412;2022-09-23T15:51:04;22.90;45.70
66190;DHT22;52992;52.084;5.412;2022-09-23T15:53:33;22.90;46.00
66190;DHT22;52992;52.084;5.412;2022-09-23T15:56:00;22.90;46.30
66190;DHT22;52992;52.084;5.412;2022-09-23T15:58:26;22.80;46.00
66190;DHT22;52992;52.084;5.412;2022-09-23T16:00:55;22.80;46.00
66190;DHT22;52992;52.084;5.412;2022-09-23T16:03:26;22.70;47.00
66190;DHT22;52992;52.084;5.412;2022-09-23T16:05:58;22.70;47.40
66190;DHT22;52992;52.084;5.412;2022-09-23T16:08:28;22.70;47.80
66190;DHT22;52992;52.084;5.412;2022-09-23T16:10:55;22.60;47.90
66190;DHT22;52992;52.084;5.412;2022-09-23T16:13:22;22.60;48.30
66190;DHT22;52992;52.084;5.412;2022-09-23T16:15:49;22.60;48.70
66190;DHT22;52992;52.084;5.412;2022-09-23T16:18:18;22.60;49.20
66190;DHT22;52992;52.084;5.412;2022-09-23T16:20:45;22.50;49.60
66190;DHT22;52992;52.084;5.412;2022-09-23T16:23:23;22.50;50.10
66190;DHT22;52992;52.084;5.412;2022-09-23T16:26:21;22.50;50.30
66190;DHT22;52992;52.084;5.412;2022-09-23T16:28:52;22.50;50.40
66190;DHT22;52992;52.084;5.412;2022-09-23T16:31:20;22.50;50.40
66190;DHT22;52992;52.084;5.412;2022-09-23T16:33:48;22.40;50.50
66190;DHT22;52992;52.084;5.412;2022-09-23T16:36:22;22.30;51.00
66190;DHT22;52992;52.084;5.412;2022-09-23T16:38:49;22.30;51.10
66190;DHT22;52992;52.084;5.412;2022-09-23T16:41:16;22.20;51.30
66190;DHT22;52992;52.084;5.412;2022-09-23T16:43:43;22.10;51.70
66190;DHT22;52992;52.084;5.412;2022-09-23T16:46:12;21.90;53.30
66190;DHT22;52992;52.084;5.412;2022-09-23T16:48:39;21.90;53.60
66190;DHT22;52992;52.084;5.412;2022-09-23T16:51:13;21.90;53.60
66190;DHT22;52992;52.084;5.412;2022-09-23T16:53:41;21.90;53.80
66190;DHT22;52992;52.084;5.412;2022-09-23T16:56:09;21.90;53.90
66190;DHT22;52992;52.084;5.412;2022-09-23T16:58:38;21.90;53.80
66190;DHT22;52992;52.084;5.412;2022-09-23T17:01:07;21.80;53.90
66190;DHT22;52992;52.084;5.412;2022-09-23T17:03:55;21.80;54.20
66190;DHT22;52992;52.084;5.412;2022-09-23T17:06:22;21.70;54.60
66190;DHT22;52992;52.084;5.412;2022-09-23T17:08:50;21.60;54.70
66190;DHT22;52992;52.084;5.412;2022-09-23T17:11:17;21.60;54.90
66190;DHT22;52992;52.084;5.412;2022-09-23T17:13:45;21.50;55.00
66190;DHT22;52992;52.084;5.412;2022-09-23T17:16:39;21.50;55.00
66190;DHT22;52992;52.084;5.412;2022-09-23T17:19:08;21.50;55.20
66190;DHT22;52992;52.084;5.412;2022-09-23T17:21:35;21.50;55.00
66190;DHT22;52992;52.084;5.412;2022-09-23T17:24:03;21.40;55.00
66190;DHT22;52992;52.084;5.412;2022-09-23T17:26:30;21.40;55.00
66190;DHT22;52992;52.084;5.412;2022-09-23T17:28:57;21.40;55.10
66190;DHT22;52992;52.084;5.412;2022-09-23T17:31:25;21.40;55.40
66190;DHT22;52992;52.084;5.412;2022-09-23T17:33:52;21.30;55.50
66190;DHT22;52992;52.084;5.412;2022-09-23T17:36:19;21.30;55.60
66190;DHT22;52992;52.084;5.412;2022-09-23T17:38:47;21.30;55.80
66190;DHT22;52992;52.084;5.412;2022-09-23T17:41:15;21.30;55.90
66190;DHT22;52992;52.084;5.412;2022-09-23T17:43:42;21.30;56.10
66190;DHT22;52992;52.084;5.412;2022-09-23T17:46:12;21.20;56.10
66190;DHT22;52992;52.084;5.412;2022-09-23T17:48:40;21.20;56.30
66190;DHT22;52992;52.084;5.412;2022-09-23T17:51:11;21.10;56.30
66190;DHT22;52992;52.084;5.412;2022-09-23T17:53:41;21.10;56.30
66190;DHT22;52992;52.084;5.412;2022-09-23T17:56:13;21.10;56.30
66190;DHT22;52992;52.084;5.412;2022-09-23T17:58:41;21.10;56.40
66190;DHT22;52992;52.084;5.412;2022-09-23T18:01:22;21.10;56.40
66190;DHT22;52992;52.084;5.412;2022-09-23T18:03:58;21.10;56.70
66190;DHT22;52992;52.084;5.412;2022-09-23T18:06:28;21.00;56.60
66190;DHT22;52992;52.084;5.412;2022-09-23T18:08:58;21.00;56.60
66190;DHT22;52992;52.084;5.412;2022-09-23T18:11:28;21.00;56.70
66190;DHT22;52992;52.084;5.412;2022-09-23T18:14:13;21.10;56.90
66190;DHT22;52992;52.084;5.412;2022-09-23T18:16:43;21.00;56.90
66190;DHT22;52992;52.084;5.412;2022-09-23T18:19:12;21.00;56.80
66190;DHT22;52992;52.084;5.412;2022-09-23T18:21:42;21.00;56.80
66190;DHT22;52992;52.084;5.412;2022-09-23T18:24:09;21.10;56.90
66190;DHT22;52992;52.084;5.412;2022-09-23T18:26:57;20.90;56.90
66190;DHT22;52992;52.084;5.412;2022-09-23T18:29:25;20.90;57.00